East Jordan, Michigan
Current Conditions -  °F | °C
As of 5:55 AM on Thursday 23 Oct 2014 (Local Time) from KCVX Reporting Station
Clear Clear  
Wind Chill: 29°   Ceiling: Unl
Heat Index: 34°   Visibility: 10mi
Dew Point: 34°   Wind: 6mph
Humidity: 100%   Direction: 160°SSE
Pressure: 30.25"   Gusts: NA
Location:  45.16°N, 85.12°W
Report Text: KCVX 230955Z AUTO 16005KT 10SM CLR 01/01 A3025 RMK AO2 T00120012
Loading
Personal Weather Stations






























Interactive Weather Map
Tropical Storm Tracking
New forecast layout! Learn more

10-Day Weather Forecast

Advertisements
Track Severe Weather on mobile